sensor_id;sensor_type;location;lat;lon;timestamp;temperature;humidity
46283;DHT22;32017;43.700;11.820;2023-01-08T00:01:06;8.60;99.90
46283;DHT22;32017;43.700;11.820;2023-01-08T00:03:26;8.50;99.90
46283;DHT22;32017;43.700;11.820;2023-01-08T00:05:46;8.40;99.90
46283;DHT22;32017;43.700;11.820;2023-01-08T00:08:06;8.50;99.90
46283;DHT22;32017;43.700;11.820;2023-01-08T00:10:27;8.60;99.90
46283;DHT22;32017;43.700;11.820;2023-01-08T00:12:46;8.60;99.90
46283;DHT22;32017;43.700;11.820;2023-01-08T00:15:06;8.60;99.90
46283;DHT22;32017;43.700;11.820;2023-01-08T00:17:26;8.60;99.90
46283;DHT22;32017;43.700;11.820;2023-01-08T00:19:46;8.60;99.90
46283;DHT22;32017;43.700;11.820;2023-01-08T00:22:06;8.50;99.90
46283;DHT22;32017;43.700;11.820;2023-01-08T00:24:26;8.50;99.90
46283;DHT22;32017;43.700;11.820;2023-01-08T00:26:46;8.40;99.90
46283;DHT22;32017;43.700;11.820;2023-01-08T00:29:06;8.50;99.90
46283;DHT22;32017;43.700;11.820;2023-01-08T00:31:26;8.60;99.90
46283;DHT22;32017;43.700;11.820;2023-01-08T00:33:46;8.50;99.90
46283;DHT22;32017;43.700;11.820;2023-01-08T00:36:13;8.50;99.90
46283;DHT22;32017;43.700;11.820;2023-01-08T00:38:33;8.40;99.90
46283;DHT22;32017;43.700;11.820;2023-01-08T00:40:53;8.50;99.90
46283;DHT22;32017;43.700;11.820;2023-01-08T00:43:13;8.50;99.90
46283;DHT22;32017;43.700;11.820;2023-01-08T00:45:33;8.50;99.90
46283;DHT22;32017;43.700;11.820;2023-01-08T00:47:53;8.50;99.90
46283;DHT22;32017;43.700;11.820;2023-01-08T00:50:13;8.50;99.90
46283;DHT22;32017;43.700;11.820;2023-01-08T00:52:33;8.50;99.90
46283;DHT22;32017;43.700;11.820;2023-01-08T00:54:52;8.50;99.90
46283;DHT22;32017;43.700;11.820;2023-01-08T00:57:12;8.50;99.90
46283;DHT22;32017;43.700;11.820;2023-01-08T00:59:32;8.50;99.90
46283;DHT22;32017;43.700;11.820;2023-01-08T01:01:51;8.40;99.90
46283;DHT22;32017;43.700;11.820;2023-01-08T01:04:13;8.40;99.90
46283;DHT22;32017;43.700;11.820;2023-01-08T01:06:35;8.40;99.90
46283;DHT22;32017;43.700;11.820;2023-01-08T01:08:55;8.30;99.90
46283;DHT22;32017;43.700;11.820;2023-01-08T01:11:23;8.30;99.90
46283;DHT22;32017;43.700;11.820;2023-01-08T01:13:43;8.30;99.90
46283;DHT22;32017;43.700;11.820;2023-01-08T01:16:04;8.30;99.90
46283;DHT22;32017;43.700;11.820;2023-01-08T01:18:24;8.20;99.90
46283;DHT22;32017;43.700;11.820;2023-01-08T01:20:45;8.30;99.90
46283;DHT22;32017;43.700;11.820;2023-01-08T01:23:05;8.30;99.90
46283;DHT22;32017;43.700;11.820;2023-01-08T01:25:57;8.30;99.90
46283;DHT22;32017;43.700;11.820;2023-01-08T01:28:17;8.40;99.90
46283;DHT22;32017;43.700;11.820;2023-01-08T01:30:37;8.50;99.90
46283;DHT22;32017;43.700;11.820;2023-01-08T01:32:58;8.60;99.90
46283;DHT22;32017;43.700;11.820;2023-01-08T01:35:18;8.60;99.90
46283;DHT22;32017;43.700;11.820;2023-01-08T01:37:37;8.60;99.90
46283;DHT22;32017;43.700;11.820;2023-01-08T01:39:57;8.60;99.90
46283;DHT22;32017;43.700;11.820;2023-01-08T01:42:19;8.60;99.90
46283;DHT22;32017;43.700;11.820;2023-01-08T01:44:57;8.60;99.90
46283;DHT22;32017;43.700;11.820;2023-01-08T01:47:32;8.60;99.90
46283;DHT22;32017;43.700;11.820;2023-01-08T01:50:04;8.60;99.90
46283;DHT22;32017;43.700;11.820;2023-01-08T01:52:30;8.60;99.90
46283;DHT22;32017;43.700;11.820;2023-01-08T01:54:51;8.60;99.90
46283;DHT22;32017;43.700;11.820;2023-01-08T01:57:12;8.60;99.90
46283;DHT22;32017;43.700;11.820;2023-01-08T01:59:32;8.60;99.90
46283;DHT22;32017;43.700;11.820;2023-01-08T02:01:53;8.60;99.90
46283;DHT22;32017;43.700;11.820;2023-01-08T02:04:14;8.60;99.90
46283;DHT22;32017;43.700;11.820;2023-01-08T02:06:37;8.60;99.90
46283;DHT22;32017;43.700;11.820;2023-01-08T02:13:59;8.50;99.90
46283;DHT22;32017;43.700;11.820;2023-01-08T02:16:42;8.40;99.90
46283;DHT22;32017;43.700;11.820;2023-01-08T02:19:15;8.50;99.90
46283;DHT22;32017;43.700;11.820;2023-01-08T02:24:14;8.40;99.90
46283;DHT22;32017;43.700;11.820;2023-01-08T02:26:36;8.50;99.90
46283;DHT22;32017;43.700;11.820;2023-01-08T02:29:06;8.40;99.90
46283;DHT22;32017;43.700;11.820;2023-01-08T02:31:29;8.50;99.90
46283;DHT22;32017;43.700;11.820;2023-01-08T02:33:49;8.50;99.90
46283;DHT22;32017;43.700;11.820;2023-01-08T02:42:10;8.60;99.90
46283;DHT22;32017;43.700;11.820;2023-01-08T02:44:54;8.60;99.90
46283;DHT22;32017;43.700;11.820;2023-01-08T02:47:29;8.60;99.90
46283;DHT22;32017;43.700;11.820;2023-01-08T02:49:56;8.60;99.90
46283;DHT22;32017;43.700;11.820;2023-01-08T02:52:19;8.60;99.90
46283;DHT22;32017;43.700;11.820;2023-01-08T02:54:40;8.60;99.90
46283;DHT22;32017;43.700;11.820;2023-01-08T02:57:08;8.60;99.90
46283;DHT22;32017;43.700;11.820;2023-01-08T02:59:30;8.60;99.90
46283;DHT22;32017;43.700;11.820;2023-01-08T03:01:52;8.60;99.90
46283;DHT22;32017;43.700;11.820;2023-01-08T03:04:16;8.60;99.90
46283;DHT22;32017;43.700;11.820;2023-01-08T03:06:37;8.60;99.90
46283;DHT22;32017;43.700;11.820;2023-01-08T03:08:58;8.60;99.90
46283;DHT22;32017;43.700;11.820;2023-01-08T03:11:20;8.60;99.90
46283;DHT22;32017;43.700;11.820;2023-01-08T03:14:09;8.50;99.90
46283;DHT22;32017;43.700;11.820;2023-01-08T03:19:01;8.50;99.90
46283;DHT22;32017;43.700;11.820;2023-01-08T03:21:21;8.40;99.90
46283;DHT22;32017;43.700;11.820;2023-01-08T03:23:43;8.40;99.90
46283;DHT22;32017;43.700;11.820;2023-01-08T03:26:05;8.40;99.90
46283;DHT22;32017;43.700;11.820;2023-01-08T03:28:29;8.30;99.90
46283;DHT22;32017;43.700;11.820;2023-01-08T03:30:52;8.40;99.90
46283;DHT22;32017;43.700;11.820;2023-01-08T03:33:12;8.40;99.90
46283;DHT22;32017;43.700;11.820;2023-01-08T03:35:36;8.40;99.90
46283;DHT22;32017;43.700;11.820;2023-01-08T03:38:05;8.40;99.90
46283;DHT22;32017;43.700;11.820;2023-01-08T03:40:38;8.30;99.90
46283;DHT22;32017;43.700;11.820;2023-01-08T03:42:59;8.20;99.90
46283;DHT22;32017;43.700;11.820;2023-01-08T03:45:21;8.10;99.90
46283;DHT22;32017;43.700;11.820;2023-01-08T03:47:42;8.10;99.90
46283;DHT22;32017;43.700;11.820;2023-01-08T03:50:06;8.10;99.90
46283;DHT22;32017;43.700;11.820;2023-01-08T03:52:29;8.00;99.90
46283;DHT22;32017;43.700;11.820;2023-01-08T03:54:49;8.10;99.90
46283;DHT22;32017;43.700;11.820;2023-01-08T03:57:09;8.00;99.90
46283;DHT22;32017;43.700;11.820;2023-01-08T03:59:29;8.00;99.90
46283;DHT22;32017;43.700;11.820;2023-01-08T04:01:49;8.00;99.90
46283;DHT22;32017;43.700;11.820;2023-01-08T04:04:10;8.00;99.90
46283;DHT22;32017;43.700;11.820;2023-01-08T04:06:30;8.00;99.90
46283;DHT22;32017;43.700;11.820;2023-01-08T04:08:50;8.00;99.90
46283;DHT22;32017;43.700;11.820;2023-01-08T04:11:10;8.00;99.90
46283;DHT22;32017;43.700;11.820;2023-01-08T04:13:30;8.00;99.90
46283;DHT22;32017;43.700;11.820;2023-01-08T04:15:50;8.10;99.90
46283;DHT22;32017;43.700;11.820;2023-01-08T04:18:10;8.10;99.90
46283;DHT22;32017;43.700;11.820;2023-01-08T04:20:30;8.20;99.90
46283;DHT22;32017;43.700;11.820;2023-01-08T04:22:50;8.20;99.90
46283;DHT22;32017;43.700;11.820;2023-01-08T04:25:10;8.20;99.90
46283;DHT22;32017;43.700;11.820;2023-01-08T04:27:30;8.20;99.90
46283;DHT22;32017;43.700;11.820;2023-01-08T04:29:50;8.20;99.90
46283;DHT22;32017;43.700;11.820;2023-01-08T04:32:10;8.20;99.90
46283;DHT22;32017;43.700;11.820;2023-01-08T04:34:29;8.20;99.90
46283;DHT22;32017;43.700;11.820;2023-01-08T04:36:50;8.20;99.90
46283;DHT22;32017;43.700;11.820;2023-01-08T04:39:10;8.20;99.90
46283;DHT22;32017;43.700;11.820;2023-01-08T04:41:30;8.30;99.90
46283;DHT22;32017;43.700;11.820;2023-01-08T04:43:50;8.20;99.90
46283;DHT22;32017;43.700;11.820;2023-01-08T04:46:10;8.20;99.90
46283;DHT22;32017;43.700;11.820;2023-01-08T04:48:30;8.30;99.90
46283;DHT22;32017;43.700;11.820;2023-01-08T04:50:50;8.30;99.90
46283;DHT22;32017;43.700;11.820;2023-01-08T04:53:10;8.30;99.90
46283;DHT22;32017;43.700;11.820;2023-01-08T04:55:31;8.30;99.90
46283;DHT22;32017;43.700;11.820;2023-01-08T04:57:51;8.20;99.90
46283;DHT22;32017;43.700;11.820;2023-01-08T05:00:12;8.30;99.90
46283;DHT22;32017;43.700;11.820;2023-01-08T05:02:32;8.30;99.90
46283;DHT22;32017;43.700;11.820;2023-01-08T05:04:52;8.30;99.90
46283;DHT22;32017;43.700;11.820;2023-01-08T05:07:12;8.30;99.90
46283;DHT22;32017;43.700;11.820;2023-01-08T05:09:33;8.30;99.90
46283;DHT22;32017;43.700;11.820;2023-01-08T05:11:52;8.20;99.90
46283;DHT22;32017;43.700;11.820;2023-01-08T05:14:12;8.30;99.90
46283;DHT22;32017;43.700;11.820;2023-01-08T05:16:32;8.20;99.90
46283;DHT22;32017;43.700;11.820;2023-01-08T05:18:51;8.20;99.90
46283;DHT22;32017;43.700;11.820;2023-01-08T05:21:12;8.30;99.90
46283;DHT22;32017;43.700;11.820;2023-01-08T05:23:32;8.20;99.90
46283;DHT22;32017;43.700;11.820;2023-01-08T05:25:55;8.20;99.90
46283;DHT22;32017;43.700;11.820;2023-01-08T05:28:15;8.20;99.90
46283;DHT22;32017;43.700;11.820;2023-01-08T05:30:36;8.20;99.90
46283;DHT22;32017;43.700;11.820;2023-01-08T05:32:55;8.20;99.90
46283;DHT22;32017;43.700;11.820;2023-01-08T05:35:15;8.30;99.90
46283;DHT22;32017;43.700;11.820;2023-01-08T05:37:36;8.30;99.90
46283;DHT22;32017;43.700;11.820;2023-01-08T05:39:56;8.20;99.90
46283;DHT22;32017;43.700;11.820;2023-01-08T05:42:16;8.30;99.90
46283;DHT22;32017;43.700;11.820;2023-01-08T05:44:36;8.30;99.90
46283;DHT22;32017;43.700;11.820;2023-01-08T05:46:56;8.30;99.90
46283;DHT22;32017;43.700;11.820;2023-01-08T05:49:16;8.30;99.90
46283;DHT22;32017;43.700;11.820;2023-01-08T05:51:36;8.30;99.90
46283;DHT22;32017;43.700;11.820;2023-01-08T05:53:56;8.40;99.90
46283;DHT22;32017;43.700;11.820;2023-01-08T05:56:16;8.40;99.90
46283;DHT22;32017;43.700;11.820;2023-01-08T05:58:37;8.40;99.90
46283;DHT22;32017;43.700;11.820;2023-01-08T06:01:07;8.30;99.90
46283;DHT22;32017;43.700;11.820;2023-01-08T06:03:28;8.30;99.90
46283;DHT22;32017;43.700;11.820;2023-01-08T06:05:48;8.30;99.90
46283;DHT22;32017;43.700;11.820;2023-01-08T06:08:08;8.30;99.90
46283;DHT22;32017;43.700;11.820;2023-01-08T06:10:28;8.30;99.90
46283;DHT22;32017;43.700;11.820;2023-01-08T06:12:48;8.30;99.90
46283;DHT22;32017;43.700;11.820;2023-01-08T06:15:09;8.20;99.90
46283;DHT22;32017;43.700;11.820;2023-01-08T06:17:30;8.20;99.90
46283;DHT22;32017;43.700;11.820;2023-01-08T06:19:50;8.20;99.90
46283;DHT22;32017;43.700;11.820;2023-01-08T06:22:09;8.20;99.90
46283;DHT22;32017;43.700;11.820;2023-01-08T06:24:29;8.20;99.90
46283;DHT22;32017;43.700;11.820;2023-01-08T06:26:49;8.10;99.90
46283;DHT22;32017;43.700;11.820;2023-01-08T06:29:09;8.10;99.90
46283;DHT22;32017;43.700;11.820;2023-01-08T06:31:29;8.10;99.90
46283;DHT22;32017;43.700;11.820;2023-01-08T06:33:49;8.10;99.90
46283;DHT22;32017;43.700;11.820;2023-01-08T06:36:09;8.00;99.90
46283;DHT22;32017;43.700;11.820;2023-01-08T06:38:34;8.00;99.90
46283;DHT22;32017;43.700;11.820;2023-01-08T06:40:54;7.90;99.90
46283;DHT22;32017;43.700;11.820;2023-01-08T06:43:14;8.00;99.90
46283;DHT22;32017;43.700;11.820;2023-01-08T06:45:34;8.00;99.90
46283;DHT22;32017;43.700;11.820;2023-01-08T06:47:54;7.90;99.90
46283;DHT22;32017;43.700;11.820;2023-01-08T06:50:14;7.90;99.90
46283;DHT22;32017;43.700;11.820;2023-01-08T06:52:34;8.00;99.90
46283;DHT22;32017;43.700;11.820;2023-01-08T06:54:53;7.90;99.90
46283;DHT22;32017;43.700;11.820;2023-01-08T06:57:13;8.00;99.90
46283;DHT22;32017;43.700;11.820;2023-01-08T06:59:33;7.90;99.90
46283;DHT22;32017;43.700;11.820;2023-01-08T07:01:53;8.00;99.90
46283;DHT22;32017;43.700;11.820;2023-01-08T07:04:13;8.10;99.90
46283;DHT22;32017;43.700;11.820;2023-01-08T07:06:34;8.10;99.90
46283;DHT22;32017;43.700;11.820;2023-01-08T07:08:54;8.00;99.90
46283;DHT22;32017;43.700;11.820;2023-01-08T07:11:14;8.00;99.90
46283;DHT22;32017;43.700;11.820;2023-01-08T07:13:34;8.00;99.90
46283;DHT22;32017;43.700;11.820;2023-01-08T07:15:55;8.10;99.90
46283;DHT22;32017;43.700;11.820;2023-01-08T07:18:15;8.20;99.90
46283;DHT22;32017;43.700;11.820;2023-01-08T07:20:36;8.30;99.90
46283;DHT22;32017;43.700;11.820;2023-01-08T07:23:00;8.30;99.90
46283;DHT22;32017;43.700;11.820;2023-01-08T07:25:20;8.30;99.90
46283;DHT22;32017;43.700;11.820;2023-01-08T07:27:40;8.30;99.90
46283;DHT22;32017;43.700;11.820;2023-01-08T07:30:00;8.40;99.90
46283;DHT22;32017;43.700;11.820;2023-01-08T07:32:20;8.40;99.90
46283;DHT22;32017;43.700;11.820;2023-01-08T07:34:40;8.70;99.90
46283;DHT22;32017;43.700;11.820;2023-01-08T07:37:00;9.00;99.90
46283;DHT22;32017;43.700;11.820;2023-01-08T07:39:20;9.10;99.90
46283;DHT22;32017;43.700;11.820;2023-01-08T07:41:40;9.20;99.90
46283;DHT22;32017;43.700;11.820;2023-01-08T07:44:00;9.60;99.90
46283;DHT22;32017;43.700;11.820;2023-01-08T07:46:20;9.60;99.90
46283;DHT22;32017;43.700;11.820;2023-01-08T07:48:41;9.50;99.90
46283;DHT22;32017;43.700;11.820;2023-01-08T07:51:05;9.40;99.90
46283;DHT22;32017;43.700;11.820;2023-01-08T07:53:25;9.40;99.90
46283;DHT22;32017;43.700;11.820;2023-01-08T07:55:45;9.40;99.90
46283;DHT22;32017;43.700;11.820;2023-01-08T07:58:11;9.40;99.90
46283;DHT22;32017;43.700;11.820;2023-01-08T08:00:31;9.50;99.90
46283;DHT22;32017;43.700;11.820;2023-01-08T08:02:51;9.50;99.90
46283;DHT22;32017;43.700;11.820;2023-01-08T08:05:11;9.50;99.90
46283;DHT22;32017;43.700;11.820;2023-01-08T08:07:31;9.60;99.90
46283;DHT22;32017;43.700;11.820;2023-01-08T08:09:51;9.50;99.90
46283;DHT22;32017;43.700;11.820;2023-01-08T08:12:11;9.40;99.90
46283;DHT22;32017;43.700;11.820;2023-01-08T08:14:32;9.40;99.90
46283;DHT22;32017;43.700;11.820;2023-01-08T08:16:52;9.40;99.90
46283;DHT22;32017;43.700;11.820;2023-01-08T08:19:12;9.40;99.90
46283;DHT22;32017;43.700;11.820;2023-01-08T08:21:32;9.50;99.90
46283;DHT22;32017;43.700;11.820;2023-01-08T08:23:52;9.50;99.90
46283;DHT22;32017;43.700;11.820;2023-01-08T08:26:12;9.40;99.90
46283;DHT22;32017;43.700;11.820;2023-01-08T08:28:32;9.40;99.90
46283;DHT22;32017;43.700;11.820;2023-01-08T08:30:52;9.50;99.90
46283;DHT22;32017;43.700;11.820;2023-01-08T08:33:12;9.40;99.90
46283;DHT22;32017;43.700;11.820;2023-01-08T08:35:33;9.60;99.90
46283;DHT22;32017;43.700;11.820;2023-01-08T08:37:53;9.60;99.90
46283;DHT22;32017;43.700;11.820;2023-01-08T08:40:14;9.60;99.90
46283;DHT22;32017;43.700;11.820;2023-01-08T08:42:33;9.70;99.90
46283;DHT22;32017;43.700;11.820;2023-01-08T08:44:53;9.70;99.90
46283;DHT22;32017;43.700;11.820;2023-01-08T08:47:14;9.60;99.90
46283;DHT22;32017;43.700;11.820;2023-01-08T08:49:33;9.60;99.90
46283;DHT22;32017;43.700;11.820;2023-01-08T08:51:54;9.60;99.90
46283;DHT22;32017;43.700;11.820;2023-01-08T08:54:14;9.60;99.90
46283;DHT22;32017;43.700;11.820;2023-01-08T08:56:34;9.50;99.90
46283;DHT22;32017;43.700;11.820;2023-01-08T08:58:54;9.50;99.90
46283;DHT22;32017;43.700;11.820;2023-01-08T09:01:13;9.50;99.90
46283;DHT22;32017;43.700;11.820;2023-01-08T09:03:34;9.50;99.90
46283;DHT22;32017;43.700;11.820;2023-01-08T09:05:54;9.50;99.90
46283;DHT22;32017;43.700;11.820;2023-01-08T09:08:14;9.50;99.90
46283;DHT22;32017;43.700;11.820;2023-01-08T09:10:36;9.50;99.90
46283;DHT22;32017;43.700;11.820;2023-01-08T09:12:56;9.50;99.90
46283;DHT22;32017;43.700;11.820;2023-01-08T09:15:17;9.50;99.90
46283;DHT22;32017;43.700;11.820;2023-01-08T09:17:37;9.50;99.90
46283;DHT22;32017;43.700;11.820;2023-01-08T09:19:57;9.50;99.90
46283;DHT22;32017;43.700;11.820;2023-01-08T09:22:17;9.40;99.90
46283;DHT22;32017;43.700;11.820;2023-01-08T09:24:36;9.30;99.90
46283;DHT22;32017;43.700;11.820;2023-01-08T09:26:57;9.40;99.90
46283;DHT22;32017;43.700;11.820;2023-01-08T09:29:17;9.30;99.90
46283;DHT22;32017;43.700;11.820;2023-01-08T09:31:37;9.30;99.90
46283;DHT22;32017;43.700;11.820;2023-01-08T09:33:58;9.30;99.90
46283;DHT22;32017;43.700;11.820;2023-01-08T09:36:17;9.30;99.90
46283;DHT22;32017;43.700;11.820;2023-01-08T09:38:37;9.30;99.90
46283;DHT22;32017;43.700;11.820;2023-01-08T09:41:08;9.30;99.90
46283;DHT22;32017;43.700;11.820;2023-01-08T09:43:31;9.30;99.90
46283;DHT22;32017;43.700;11.820;2023-01-08T09:45:52;9.30;99.90
46283;DHT22;32017;43.700;11.820;2023-01-08T09:48:16;9.30;99.90
46283;DHT22;32017;43.700;11.820;2023-01-08T09:50:37;9.30;99.90
46283;DHT22;32017;43.700;11.820;2023-01-08T09:52:58;9.30;99.90
46283;DHT22;32017;43.700;11.820;2023-01-08T09:55:18;9.40;99.90
46283;DHT22;32017;43.700;11.820;2023-01-08T09:57:38;9.50;99.90
46283;DHT22;32017;43.700;11.820;2023-01-08T09:59:59;9.50;99.90
46283;DHT22;32017;43.700;11.820;2023-01-08T10:02:21;9.60;99.90
46283;DHT22;32017;43.700;11.820;2023-01-08T10:04:43;9.60;99.90
46283;DHT22;32017;43.700;11.820;2023-01-08T10:07:18;9.60;99.90
46283;DHT22;32017;43.700;11.820;2023-01-08T10:09:40;9.60;99.90
46283;DHT22;32017;43.700;11.820;2023-01-08T10:12:02;9.60;99.90
46283;DHT22;32017;43.700;11.820;2023-01-08T10:14:29;9.60;99.90
46283;DHT22;32017;43.700;11.820;2023-01-08T10:16:56;9.60;99.90
46283;DHT22;32017;43.700;11.820;2023-01-08T10:19:17;9.60;99.90
46283;DHT22;32017;43.700;11.820;2023-01-08T10:21:39;9.60;99.90
46283;DHT22;32017;43.700;11.820;2023-01-08T10:23:59;9.60;99.90
46283;DHT22;32017;43.700;11.820;2023-01-08T10:26:31;9.60;99.90
46283;DHT22;32017;43.700;11.820;2023-01-08T10:29:04;9.70;99.90
46283;DHT22;32017;43.700;11.820;2023-01-08T10:31:24;9.70;99.90
46283;DHT22;32017;43.700;11.820;2023-01-08T10:33:46;9.70;99.90
46283;DHT22;32017;43.700;11.820;2023-01-08T10:36:09;9.70;99.90
46283;DHT22;32017;43.700;11.820;2023-01-08T10:38:33;9.70;99.90
46283;DHT22;32017;43.700;11.820;2023-01-08T10:40:54;9.80;99.90
46283;DHT22;32017;43.700;11.820;2023-01-08T10:43:19;9.80;99.90
46283;DHT22;32017;43.700;11.820;2023-01-08T10:45:39;9.80;99.90
46283;DHT22;32017;43.700;11.820;2023-01-08T10:48:04;9.80;99.90
46283;DHT22;32017;43.700;11.820;2023-01-08T10:50:28;9.80;99.90
46283;DHT22;32017;43.700;11.820;2023-01-08T10:52:54;9.90;99.90
46283;DHT22;32017;43.700;11.820;2023-01-08T10:55:28;9.90;99.90
46283;DHT22;32017;43.700;11.820;2023-01-08T10:57:53;9.90;99.90
46283;DHT22;32017;43.700;11.820;2023-01-08T11:00:30;9.90;99.90
46283;DHT22;32017;43.700;11.820;2023-01-08T11:02:50;10.00;99.90
46283;DHT22;32017;43.700;11.820;2023-01-08T11:05:10;10.00;99.90
46283;DHT22;32017;43.700;11.820;2023-01-08T11:07:31;10.00;99.90
46283;DHT22;32017;43.700;11.820;2023-01-08T11:09:53;10.00;99.90
46283;DHT22;32017;43.700;11.820;2023-01-08T11:14:47;10.10;99.90
46283;DHT22;32017;43.700;11.820;2023-01-08T11:17:09;10.10;99.90
46283;DHT22;32017;43.700;11.820;2023-01-08T11:19:31;10.10;99.90
46283;DHT22;32017;43.700;11.820;2023-01-08T11:22:01;10.20;99.90
46283;DHT22;32017;43.700;11.820;2023-01-08T11:24:24;10.20;99.90
46283;DHT22;32017;43.700;11.820;2023-01-08T11:29:49;10.30;99.90
46283;DHT22;32017;43.700;11.820;2023-01-08T11:37:25;10.30;99.90
46283;DHT22;32017;43.700;11.820;2023-01-08T11:39:46;10.40;99.90
46283;DHT22;32017;43.700;11.820;2023-01-08T11:45:11;10.50;99.90
46283;DHT22;32017;43.700;11.820;2023-01-08T11:48:17;10.60;99.90
46283;DHT22;32017;43.700;11.820;2023-01-08T12:02:19;10.70;99.90
46283;DHT22;32017;43.700;11.820;2023-01-08T12:20:15;12.10;99.90
46283;DHT22;32017;43.700;11.820;2023-01-08T12:31:07;12.90;99.90
46283;DHT22;32017;43.700;11.820;2023-01-08T12:35:58;13.40;99.90
46283;DHT22;32017;43.700;11.820;2023-01-08T12:38:21;13.50;99.90
46283;DHT22;32017;43.700;11.820;2023-01-08T12:40:54;13.50;99.90
46283;DHT22;32017;43.700;11.820;2023-01-08T12:43:27;13.30;99.90
46283;DHT22;32017;43.700;11.820;2023-01-08T12:45:51;13.50;99.90
46283;DHT22;32017;43.700;11.820;2023-01-08T12:48:19;13.40;99.90
46283;DHT22;32017;43.700;11.820;2023-01-08T12:50:43;13.40;99.90
46283;DHT22;32017;43.700;11.820;2023-01-08T12:53:11;13.60;99.90
46283;DHT22;32017;43.700;11.820;2023-01-08T12:55:39;13.80;99.90
46283;DHT22;32017;43.700;11.820;2023-01-08T13:03:50;13.10;99.90
46283;DHT22;32017;43.700;11.820;2023-01-08T13:06:13;13.00;99.90
46283;DHT22;32017;43.700;11.820;2023-01-08T13:08:36;12.90;99.90
46283;DHT22;32017;43.700;11.820;2023-01-08T13:10:57;12.80;99.90
46283;DHT22;32017;43.700;11.820;2023-01-08T13:13:40;12.70;99.90
46283;DHT22;32017;43.700;11.820;2023-01-08T13:18:39;12.50;99.90
46283;DHT22;32017;43.700;11.820;2023-01-08T13:21:01;12.40;99.90
46283;DHT22;32017;43.700;11.820;2023-01-08T13:23:23;12.40;99.90
46283;DHT22;32017;43.700;11.820;2023-01-08T13:25:56;12.40;99.90
46283;DHT22;32017;43.700;11.820;2023-01-08T13:30:43;12.30;99.90
46283;DHT22;32017;43.700;11.820;2023-01-08T13:33:42;12.30;99.90
46283;DHT22;32017;43.700;11.820;2023-01-08T13:38:40;12.10;99.90
46283;DHT22;32017;43.700;11.820;2023-01-08T13:41:00;12.10;99.90
46283;DHT22;32017;43.700;11.820;2023-01-08T13:48:29;12.00;99.90
46283;DHT22;32017;43.700;11.820;2023-01-08T13:50:51;11.90;99.90
46283;DHT22;32017;43.700;11.820;2023-01-08T13:53:13;11.90;99.90
46283;DHT22;32017;43.700;11.820;2023-01-08T13:55:36;11.90;99.90
46283;DHT22;32017;43.700;11.820;2023-01-08T13:58:03;11.80;99.90
46283;DHT22;32017;43.700;11.820;2023-01-08T14:03:00;11.70;99.90
46283;DHT22;32017;43.700;11.820;2023-01-08T14:05:27;11.60;99.90
46283;DHT22;32017;43.700;11.820;2023-01-08T14:07:47;11.60;99.90
46283;DHT22;32017;43.700;11.820;2023-01-08T14:10:11;11.60;99.90
46283;DHT22;32017;43.700;11.820;2023-01-08T14:12:33;11.60;99.90
46283;DHT22;32017;43.700;11.820;2023-01-08T14:14:56;11.60;99.90
46283;DHT22;32017;43.700;11.820;2023-01-08T14:17:20;11.60;99.90
46283;DHT22;32017;43.700;11.820;2023-01-08T14:19:42;11.60;99.90
46283;DHT22;32017;43.700;11.820;2023-01-08T14:22:02;11.50;99.90
46283;DHT22;32017;43.700;11.820;2023-01-08T14:24:30;11.50;99.90
46283;DHT22;32017;43.700;11.820;2023-01-08T14:26:58;11.50;99.90
46283;DHT22;32017;43.700;11.820;2023-01-08T14:29:23;11.50;99.90
46283;DHT22;32017;43.700;11.820;2023-01-08T14:31:49;11.50;99.90
46283;DHT22;32017;43.700;11.820;2023-01-08T14:34:11;11.40;99.90
46283;DHT22;32017;43.700;11.820;2023-01-08T14:36:32;11.40;99.90
46283;DHT22;32017;43.700;11.820;2023-01-08T14:38:52;11.50;99.90
46283;DHT22;32017;43.700;11.820;2023-01-08T14:41:13;11.40;99.90
46283;DHT22;32017;43.700;11.820;2023-01-08T14:43:38;11.40;99.90
46283;DHT22;32017;43.700;11.820;2023-01-08T14:46:00;11.40;99.90
46283;DHT22;32017;43.700;11.820;2023-01-08T14:48:35;11.50;99.90
46283;DHT22;32017;43.700;11.820;2023-01-08T14:51:11;11.40;99.90
46283;DHT22;32017;43.700;11.820;2023-01-08T14:56:33;11.40;99.90
46283;DHT22;32017;43.700;11.820;2023-01-08T14:58:55;11.40;99.90
46283;DHT22;32017;43.700;11.820;2023-01-08T15:01:22;11.40;99.90
46283;DHT22;32017;43.700;11.820;2023-01-08T15:03:44;11.30;99.90
46283;DHT22;32017;43.700;11.820;2023-01-08T15:06:05;11.30;99.90
46283;DHT22;32017;43.700;11.820;2023-01-08T15:08:37;11.30;99.90
46283;DHT22;32017;43.700;11.820;2023-01-08T15:11:00;11.30;99.90
46283;DHT22;32017;43.700;11.820;2023-01-08T15:13:22;11.30;99.90
46283;DHT22;32017;43.700;11.820;2023-01-08T15:15:55;11.30;99.90
46283;DHT22;32017;43.700;11.820;2023-01-08T15:18:17;11.30;99.90
46283;DHT22;32017;43.700;11.820;2023-01-08T15:20:37;11.30;99.90
46283;DHT22;32017;43.700;11.820;2023-01-08T15:22:57;11.30;99.90
46283;DHT22;32017;43.700;11.820;2023-01-08T15:25:23;11.30;99.90
46283;DHT22;32017;43.700;11.820;2023-01-08T15:27:59;11.20;99.90
46283;DHT22;32017;43.700;11.820;2023-01-08T15:30:37;11.20;99.90
46283;DHT22;32017;43.700;11.820;2023-01-08T15:33:20;11.20;99.90
46283;DHT22;32017;43.700;11.820;2023-01-08T15:35:41;11.20;99.90
46283;DHT22;32017;43.700;11.820;2023-01-08T15:38:01;11.20;99.90
46283;DHT22;32017;43.700;11.820;2023-01-08T15:40:20;11.20;99.90
46283;DHT22;32017;43.700;11.820;2023-01-08T15:42:42;11.10;99.90
46283;DHT22;32017;43.700;11.820;2023-01-08T15:45:26;11.20;99.90
46283;DHT22;32017;43.700;11.820;2023-01-08T15:47:47;11.10;99.90
46283;DHT22;32017;43.700;11.820;2023-01-08T15:50:07;11.10;99.90
46283;DHT22;32017;43.700;11.820;2023-01-08T15:52:28;11.10;99.90
46283;DHT22;32017;43.700;11.820;2023-01-08T15:54:48;11.20;99.90
46283;DHT22;32017;43.700;11.820;2023-01-08T15:57:10;11.20;99.90
46283;DHT22;32017;43.700;11.820;2023-01-08T15:59:30;11.20;99.90
46283;DHT22;32017;43.700;11.820;2023-01-08T16:01:54;11.20;99.90
46283;DHT22;32017;43.700;11.820;2023-01-08T16:04:14;11.20;99.90
46283;DHT22;32017;43.700;11.820;2023-01-08T16:06:34;11.20;99.90
46283;DHT22;32017;43.700;11.820;2023-01-08T16:08:54;11.20;99.90
46283;DHT22;32017;43.700;11.820;2023-01-08T16:11:18;11.20;99.90
46283;DHT22;32017;43.700;11.820;2023-01-08T16:13:38;11.20;99.90
46283;DHT22;32017;43.700;11.820;2023-01-08T16:15:59;11.20;99.90
46283;DHT22;32017;43.700;11.820;2023-01-08T16:18:19;11.20;99.90
46283;DHT22;32017;43.700;11.820;2023-01-08T16:20:39;11.20;99.90
46283;DHT22;32017;43.700;11.820;2023-01-08T16:23:00;11.20;99.90
46283;DHT22;32017;43.700;11.820;2023-01-08T16:25:20;11.20;99.90
46283;DHT22;32017;43.700;11.820;2023-01-08T16:27:40;11.20;99.90
46283;DHT22;32017;43.700;11.820;2023-01-08T16:30:01;11.20;99.90